• Join FlightAware (Why Join?)
  • Login
  • US Flag 
02:28PM EST


 

Airport Tracker/Info


-or-


 

Live Flight TrackerFlight Track Log ✈ N544PS ✈ 21-Jun-2013 ✈ 64OG - KUAO

Flight Track Log - Related Links

Times and Time Zones

All times are in EDT time to prevent confusion due to time zone crossing. See the N544PS flight status page for this flight to view local times or setup timezone preferences in your user account.

Time Position Orientation Groundspeed Altitude Reporting Facility
EDT Latitude Longitude Course Direction KTS MPH feet Rate Location/Type
10:18PM 44.5181 -119.9719 291° West 249 287 8,800  Level Seattle Center
10:19PM 44.5464 -120.0750 291° West 272 313 11,600 2,640 Climbing Seattle Center
10:20PM 44.5769 -120.1864 291° West 296 341 14,200 2,400 Climbing Seattle Center
10:21PM 44.6089 -120.3014 291° West 312 359 16,600 1,860 Climbing Seattle Center
10:22PM 44.6408 -120.4158 291° West 314 361 18,100 1,440 Climbing Seattle Center
10:23PM 44.6717 -120.5328 290° West 317 365 19,600 840 Climbing Seattle Center
10:24PM 44.7042 -120.6553 291° West 327 376 19,900 180 Climbing Seattle Center
10:25PM 44.7383 -120.7831 291° West 343 395 20,000  Climbing Seattle Center
10:26PM 44.7736 -120.9136 291° West 353 406 20,000  Level Seattle Center
10:27PM 44.8075 -121.0425 290° West 353 406 20,000  Level Seattle Center
10:28PM 44.8422 -121.1731 291° West 357 411 20,000  Level Seattle Center
10:29PM 44.8547 -121.3131 277° West 364 419 20,000  Level Seattle Center
10:30PM 44.8639 -121.4794 275° West 357 411 20,000 -600 Level Seattle Center
10:31PM 44.8733 -121.6181 276° West 357 411 18,900 -1,620 Descending Seattle Center
10:32PM 44.8814 -121.7450 275° West 328 377 16,800 -2,220 Descending Seattle Center
10:33PM 44.8889 -121.8758 275° West 336 387 14,400 -2,400 Descending Seattle Center
10:34PM 44.8997 -121.9983 277° West 325 374 12,000 -2,400 Descending Seattle Center
10:35PM 44.9069 -122.1156 275° West 309 356 9,600 -1,920 Descending Seattle Center
10:36PM 44.9122 -122.2236 274° West 284 327 8,100 -840 Descending Seattle Center
10:37PM 44.9300 -122.3197 285° West 265 305 7,900 -480 Descending Seattle Center
10:38PM 44.9819 -122.3911 316° Northwest 259 298 7,200 -840 Descending Seattle Center
10:39PM 45.0344 -122.4644 315° West 267 307 6,200 -1,140 Descending Seattle Center
10:40PM 45.0844 -122.5369 314° West 262 302 5,000 -720 Descending Seattle Center
10:41PM 45.1342 -122.6072 315° West 260 299 4,800 -240 Descending Seattle Center